Macks Inn, ID (83433)

4:14 AM MST on December 03, 2016 (GMT -0700)
MesoWest | | Change Station
Active Advisory: Winter Storm Watch

Elev 7709 ft 44.53 °N, 111.41 °W | Updated 4 hours ago

Light Snow
Light Snow
14 °F
Feels Like 14 °F
N
Wind Variable Wind from North
Gusts 0.0 mph

Today
High -- | Low -- °F
--% Chance of Precip.
Yesterday
High -- | Low -- °F
Precip. -- in
Pressure 30.06 in
Visibility 1.0 miles
Clouds Overcast 300 ft
Windchill 14 °F
Dew Point Not available.
Humidity Not available.
Rainfall in
Snow Depth Not available.
7:44 AM 4:46 PM
Waxing Crescent, 14% visible
METAR KWYS 031050Z AUTO 22009G19KT 1SM -SN OVC003 M09/M11 A3006 RMK AO2
Pressure 30.06 in
Visibility 1.0 miles
Clouds Overcast 300 ft
Windchill 14 °F
Dew Point Not available.
Humidity Not available.
Rainfall in
Snow Depth Not available.
7:44 AM 4:46 PM
Waxing Crescent, 14% visible
METAR KWYS 031050Z AUTO 22009G19KT 1SM -SN OVC003 M09/M11 A3006 RMK AO2

10-Day Weather Forecast

Almanac

Astronomy

Dec. 03, 2016 Rise Set
Actual Time
Civil Twilight
Nautical Twilight
Astronomical Twilight
Moon
Length of Visible Light
Length of Day
Tomorrow will be .
, % of the Moon is Illuminated

Today's Extremes

State Highs State Lows

Community

WunderPhotos

Upload Photos

1,955,434 photos uploaded!

WunderBlog® & News

Nearby

Air Quality

  Air Quality AQ Index Pollutant
Not available.

Snow Depth

Station Depth Elevation

Earthquake Activity

City Distance Mag. Time & Date
Minimum magnitude displayed is 2.5.

Coastal Water Temperatures

Place Temperature

Stations

Nearby Weather Stations

Station Location Temp. Windchill Dew Point Humidity Wind Precip. Elev Updated Type
                   

Watches & Warnings

Winter Storm Watch
Issued: 2:36 AM MST Dec. 3, 2016 – National Weather Service

... Winter Storm Watch remains in effect from Sunday morning
through Monday afternoon...

* impacts... snow to produce difficult driving conditions.
Blowing snow will reduce visibilities below 1/4 statue mile on
roadways. Risk of frostbite late Sunday through Monday if
exposed for a prolonged period without proper protection.

* Timing... Sunday afternoon through Monday afternoon... peaking
late Sunday through early Monday.

* Snow accumulations... 4 to 8 inches up to 14 inches.

* Locations... Island Park... Driggs... Soda Springs... Lava Hot
Springs... Fish Creek Summit... Pine Creek Pass.

Precautionary/preparedness actions...

A Winter Storm Watch means there is a potential for significant
snow... sleet or ice accumulations that may impact travel.
Continue to monitor the latest forecasts.